Time;durP1;ratioP1;P1;durP2;ratioP2;P2;SDS_P1;SDS_P2;PMS_P1;PMS_P2;Temp;Humidity;BMP_temperature;BMP_pressure;BME280_temperature;BME280_humidity;BME280_pressure;Samples;Min_cycle;Max_cycle;Signal;HPM_P1;HPM_P2
2022/11/30 00:00:55;;;;;;;39.50;24.60;;;7.00;99.90;;;;;;5052400;28;20041;-34
2022/11/30 00:03:21;;;;;;;42.97;24.70;;;7.00;99.90;;;;;;5041632;28;20125;-31
2022/11/30 00:05:48;;;;;;;46.10;25.60;;;7.00;99.90;;;;;;5032962;28;20094;-30
2022/11/30 00:08:13;;;;;;;39.58;23.77;;;7.00;99.90;;;;;;5043780;28;20196;-29
2022/11/30 00:10:40;;;;;;;39.85;25.80;;;7.00;99.90;;;;;;5050452;28;20029;-33
2022/11/30 00:13:07;;;;;;;43.47;25.02;;;7.00;99.90;;;;;;5050138;28;20049;-31
2022/11/30 00:15:34;;;;;;;37.80;23.67;;;7.00;99.90;;;;;;5046037;28;20379;-31
2022/11/30 00:18:00;;;;;;;41.42;24.10;;;7.00;99.90;;;;;;5049675;28;20073;-30
2022/11/30 00:20:28;;;;;;;36.25;23.33;;;7.00;99.90;;;;;;5054400;28;20099;-30
2022/11/30 00:22:55;;;;;;;39.55;24.13;;;6.90;99.90;;;;;;5051219;28;20076;-30
2022/11/30 00:25:21;;;;;;;45.03;24.88;;;6.90;99.90;;;;;;5049586;28;20521;-29
2022/11/30 00:27:47;;;;;;;36.67;22.88;;;7.00;99.90;;;;;;5053277;28;20040;-30
2022/11/30 00:30:15;;;;;;;44.25;23.80;;;6.90;99.90;;;;;;5050643;28;20032;-29
2022/11/30 00:32:41;;;;;;;45.15;25.25;;;7.00;99.90;;;;;;5050381;28;20509;-29
2022/11/30 00:35:07;;;;;;;40.88;24.42;;;6.90;99.90;;;;;;5052516;28;20033;-29
2022/11/30 00:37:34;;;;;;;41.55;24.40;;;6.90;99.90;;;;;;5051413;28;20048;-31
2022/11/30 00:40:00;;;;;;;41.33;24.00;;;6.90;99.90;;;;;;5044042;28;20041;-32
2022/11/30 00:42:25;;;;;;;40.47;25.27;;;6.90;99.90;;;;;;5050026;28;20060;-30
2022/11/30 00:44:51;;;;;;;40.10;22.95;;;6.90;99.90;;;;;;5052464;28;20175;-31
2022/11/30 00:47:17;;;;;;;38.03;22.80;;;6.90;99.90;;;;;;5051740;28;20033;-29
2022/11/30 00:49:43;;;;;;;39.50;23.58;;;6.90;99.90;;;;;;5043773;28;20044;-30
2022/11/30 00:52:08;;;;;;;40.03;23.48;;;6.80;99.90;;;;;;5033472;28;20029;-30
2022/11/30 00:54:34;;;;;;;38.40;23.08;;;6.80;99.90;;;;;;5041773;28;20044;-31
2022/11/30 00:57:00;;;;;;;35.25;22.30;;;6.70;99.90;;;;;;5041844;28;20441;-29
2022/11/30 00:59:26;;;;;;;34.97;22.42;;;6.60;99.90;;;;;;5051402;28;20048;-30
2022/11/30 01:01:53;;;;;;;39.30;23.85;;;6.50;99.90;;;;;;5052215;28;20037;-29
2022/11/30 01:04:19;;;;;;;37.72;22.45;;;6.50;99.90;;;;;;5050589;28;20033;-29
2022/11/30 01:06:45;;;;;;;41.45;23.98;;;6.40;99.90;;;;;;5030103;28;20044;-30
2022/11/30 01:09:11;;;;;;;38.58;21.95;;;6.20;99.90;;;;;;5035232;28;20033;-31
2022/11/30 01:11:37;;;;;;;42.42;23.88;;;6.10;99.90;;;;;;5039690;28;20096;-32
2022/11/30 01:14:03;;;;;;;39.42;22.92;;;6.10;99.90;;;;;;5046495;28;20041;-29
2022/11/30 01:16:31;;;;;;;43.40;23.45;;;6.00;99.90;;;;;;5051421;28;20045;-29
2022/11/30 01:18:57;;;;;;;44.92;23.95;;;5.90;99.90;;;;;;5040167;28;20044;-29
2022/11/30 01:21:26;;;;;;;39.85;23.58;;;5.90;99.90;;;;;;5059382;28;20090;-30
2022/11/30 01:23:53;;;;;;;41.33;24.52;;;5.80;99.90;;;;;;5052062;28;20497;-29
2022/11/30 01:26:19;;;;;;;37.35;22.73;;;5.70;99.90;;;;;;5051586;28;20041;-29
2022/11/30 01:28:50;;;;;;;40.95;22.25;;;5.60;99.90;;;;;;5047678;28;20068;-29
2022/11/30 01:31:16;;;;;;;41.53;23.70;;;5.50;99.90;;;;;;5050372;28;20437;-29
2022/11/30 01:33:42;;;;;;;43.25;25.08;;;5.40;99.90;;;;;;5050645;28;20068;-30
2022/11/30 01:36:13;;;;;;;40.90;24.90;;;5.50;99.90;;;;;;5055941;28;20037;-30
2022/11/30 01:38:42;;;;;;;46.30;24.65;;;5.50;99.90;;;;;;5052154;28;20041;-30
2022/11/30 01:41:10;;;;;;;44.92;25.13;;;5.50;99.90;;;;;;5055359;28;20111;-30
2022/11/30 01:43:44;;;;;;;52.28;27.25;;;5.50;99.90;;;;;;5056048;28;20047;-29
2022/11/30 01:46:51;;;;;;;52.80;28.55;;;5.60;99.90;;;;;;5053831;28;20514;-30
2022/11/30 01:49:27;;;;;;;58.70;27.92;;;5.60;99.90;;;;;;5054379;28;20051;-29
2022/11/30 01:52:02;;;;;;;57.60;28.75;;;5.60;99.90;;;;;;5054134;28;20093;-29
2022/11/30 01:54:48;;;;;;;59.35;29.35;;;5.70;99.90;;;;;;5048633;28;20035;-31
2022/11/30 01:57:28;;;;;;;63.17;29.35;;;5.80;99.90;;;;;;5053008;28;20037;-30
2022/11/30 01:59:57;;;;;;;58.50;29.55;;;5.80;99.90;;;;;;5048476;28;20049;-29
2022/11/30 02:02:50;;;;;;;56.63;28.60;;;5.90;99.90;;;;;;5054469;28;20044;-30
2022/11/30 02:05:17;;;;;;;60.03;28.52;;;5.90;99.90;;;;;;5053514;28;20091;-29
2022/11/30 02:07:43;;;;;;;62.72;30.63;;;6.00;99.90;;;;;;5051171;28;20073;-29
2022/11/30 02:10:14;;;;;;;61.28;30.13;;;6.00;99.90;;;;;;5052518;28;21117;-31
2022/11/30 02:12:55;;;;;;;58.75;30.13;;;6.10;99.90;;;;;;5071570;28;20036;-28
2022/11/30 02:15:29;;;;;;;60.40;29.83;;;6.10;99.90;;;;;;5050321;28;20033;-29
2022/11/30 02:18:10;;;;;;;65.32;30.33;;;6.10;99.90;;;;;;5053853;28;20028;-29
2022/11/30 02:20:52;;;;;;;58.83;30.20;;;6.20;99.90;;;;;;5054522;28;20033;-33
2022/11/30 02:23:20;;;;;;;56.38;29.80;;;6.10;99.90;;;;;;5051317;28;20064;-30
2022/11/30 02:26:02;;;;;;;63.03;30.88;;;6.20;99.90;;;;;;5050637;28;20056;-28
2022/11/30 02:28:46;;;;;;;57.55;29.13;;;6.20;99.90;;;;;;5052785;28;20079;-31
2022/11/30 02:31:16;;;;;;;;;;;6.20;99.90;;;;;;5054023;28;20033;-31
2022/11/30 02:33:42;;;;;;;57.42;29.20;;;6.30;99.90;;;;;;5050582;28;19917;-29
2022/11/30 02:36:09;;;;;;;57.85;28.85;;;6.30;99.90;;;;;;5052282;28;20502;-29
2022/11/30 02:38:36;;;;;;;56.10;29.42;;;6.30;99.90;;;;;;5053321;28;20390;-29
2022/11/30 02:41:02;;;;;;;62.90;29.55;;;6.30;99.90;;;;;;5053436;28;20120;-29
2022/11/30 02:43:30;;;;;;;60.05;30.30;;;6.30;99.90;;;;;;5053978;28;20041;-29
2022/11/30 02:46:15;;;;;;;62.97;30.63;;;6.40;99.90;;;;;;5053743;28;20108;-29
2022/11/30 02:48:48;;;;;;;62.95;29.75;;;6.40;99.90;;;;;;5028532;28;20371;-31
2022/11/30 02:51:19;;;;;;;56.83;29.52;;;6.40;99.90;;;;;;5052310;28;20041;-29
2022/11/30 02:53:46;;;;;;;64.10;30.10;;;6.40;99.90;;;;;;5051401;28;20029;-30
2022/11/30 02:56:12;;;;;;;55.90;27.98;;;6.40;99.90;;;;;;5053647;28;20045;-29
2022/11/30 02:58:38;;;;;;;62.60;31.17;;;6.40;99.90;;;;;;5045443;28;20387;-30
2022/11/30 03:01:04;;;;;;;57.58;30.52;;;6.40;99.90;;;;;;5058470;28;20448;-28
2022/11/30 03:03:30;;;;;;;64.63;31.23;;;6.40;99.90;;;;;;5052302;28;20056;-30
2022/11/30 03:05:56;;;;;;;61.53;31.30;;;6.50;99.90;;;;;;5053922;28;20477;-31
2022/11/30 03:08:22;;;;;;;61.40;29.52;;;6.40;99.90;;;;;;5051888;28;20037;-30
2022/11/30 03:10:48;;;;;;;59.28;30.67;;;6.50;99.90;;;;;;5054049;28;20120;-30
2022/11/30 03:13:14;;;;;;;55.83;30.92;;;6.50;99.90;;;;;;5052951;28;20091;-31
2022/11/30 03:15:40;;;;;;;63.28;31.85;;;6.50;99.90;;;;;;5054385;28;20489;-30
2022/11/30 03:18:05;;;;;;;56.83;30.13;;;6.50;99.90;;;;;;5053493;28;20118;-31
2022/11/30 03:20:31;;;;;;;57.15;29.55;;;6.50;99.90;;;;;;5053799;28;20064;-30
2022/11/30 03:23:01;;;;;;;51.00;28.33;;;6.50;99.90;;;;;;5047314;28;20091;-29
2022/11/30 03:25:28;;;;;;;57.10;30.52;;;6.50;99.90;;;;;;5047779;28;20064;-31
2022/11/30 03:27:54;;;;;;;54.25;29.75;;;6.50;99.90;;;;;;5034147;28;20052;-29
2022/11/30 03:30:20;;;;;;;53.88;31.13;;;6.50;99.90;;;;;;5042002;28;20429;-31
2022/11/30 03:32:45;;;;;;;50.30;30.38;;;6.50;99.90;;;;;;5045403;28;20039;-29
2022/11/30 03:35:11;;;;;;;56.25;31.08;;;6.50;99.90;;;;;;5049291;28;20029;-29
2022/11/30 03:37:37;;;;;;;52.45;30.33;;;6.50;99.90;;;;;;5051962;28;20033;-28
2022/11/30 03:40:03;;;;;;;50.58;30.00;;;6.50;99.90;;;;;;5052919;28;20094;-28
2022/11/30 03:42:29;;;;;;;57.95;29.70;;;6.50;99.90;;;;;;5053763;28;20029;-30
2022/11/30 03:44:55;;;;;;;54.17;28.92;;;6.50;99.90;;;;;;5055345;28;20044;-31
2022/11/30 03:47:21;;;;;;;54.75;29.75;;;6.50;99.90;;;;;;5040191;28;20052;-33
2022/11/30 03:49:47;;;;;;;57.20;29.92;;;6.50;99.90;;;;;;5042069;28;20037;-29
2022/11/30 03:52:12;;;;;;;57.17;29.85;;;6.50;99.90;;;;;;5052440;28;20103;-29
2022/11/30 03:54:38;;;;;;;53.05;29.85;;;6.50;99.90;;;;;;5051597;28;20478;-29
2022/11/30 03:57:04;;;;;;;53.83;29.10;;;6.50;99.90;;;;;;5040855;28;20030;-32
2022/11/30 03:59:30;;;;;;;49.03;29.00;;;6.50;99.90;;;;;;5043525;28;20037;-32
2022/11/30 04:01:55;;;;;;;52.72;30.27;;;6.50;99.90;;;;;;5050119;28;20664;-31
2022/11/30 04:08:02;;;;;;;49.60;28.17;;;6.50;99.90;;;;;;5121666;22;20109;-26
2022/11/30 04:10:28;;;;;;;50.95;28.52;;;6.50;99.90;;;;;;5041180;28;20037;-26
2022/11/30 04:12:54;;;;;;;56.75;30.88;;;6.50;99.90;;;;;;5047544;28;20116;-26
2022/11/30 04:15:19;;;;;;;52.60;29.20;;;6.60;99.90;;;;;;5039568;28;20052;-26
2022/11/30 04:17:45;;;;;;;57.97;29.15;;;6.60;99.90;;;;;;5022381;28;20060;-26
2022/11/30 04:20:11;;;;;;;56.05;31.00;;;6.50;99.90;;;;;;5045709;28;20051;-26
2022/11/30 04:22:37;;;;;;;57.28;29.02;;;6.50;99.90;;;;;;5029482;28;20045;-26
2022/11/30 04:25:03;;;;;;;56.58;29.42;;;6.60;99.90;;;;;;5025429;28;20041;-26
2022/11/30 04:27:29;;;;;;;53.40;28.42;;;6.60;99.90;;;;;;5025158;28;20037;-26
2022/11/30 04:29:55;;;;;;;53.20;28.92;;;6.60;99.90;;;;;;5022470;28;20505;-26
2022/11/30 04:32:20;;;;;;;50.65;28.95;;;6.60;99.90;;;;;;5045555;28;20042;-26
2022/11/30 04:34:46;;;;;;;52.83;28.52;;;6.60;99.90;;;;;;5026743;28;20044;-27
2022/11/30 04:37:12;;;;;;;54.60;27.95;;;6.60;99.90;;;;;;5028711;28;20762;-27
2022/11/30 04:39:37;;;;;;;49.92;28.48;;;6.60;99.90;;;;;;5026169;28;20041;-27
2022/11/30 04:42:03;;;;;;;54.05;28.30;;;6.60;99.90;;;;;;5028507;28;20379;-27
2022/11/30 04:44:29;;;;;;;45.90;26.30;;;6.60;99.90;;;;;;5012421;28;20045;-27
2022/11/30 04:46:55;;;;;;;46.50;27.95;;;6.60;99.90;;;;;;5028223;28;20040;-27
2022/11/30 04:49:20;;;;;;;52.78;27.52;;;6.60;99.90;;;;;;5044978;28;20053;-27
2022/11/30 04:51:46;;;;;;;51.42;27.52;;;6.60;99.90;;;;;;5029076;28;20036;-27
2022/11/30 04:54:12;;;;;;;49.97;28.27;;;6.60;99.90;;;;;;5029033;28;20030;-27
2022/11/30 04:56:37;;;;;;;49.47;27.20;;;6.60;99.90;;;;;;5028634;28;20107;-27
2022/11/30 04:59:03;;;;;;;49.58;27.85;;;6.60;99.90;;;;;;5029225;28;20124;-27
2022/11/30 05:01:29;;;;;;;48.83;27.35;;;6.60;99.90;;;;;;5046027;28;20033;-27
2022/11/30 05:03:58;;;;;;;50.55;27.70;;;6.60;99.90;;;;;;5026509;28;20453;-27
2022/11/30 05:06:24;;;;;;;49.60;27.77;;;6.60;99.90;;;;;;5013526;28;20120;-27
2022/11/30 05:08:50;;;;;;;52.75;27.23;;;6.50;99.90;;;;;;5032872;28;20470;-27
2022/11/30 05:11:15;;;;;;;45.35;25.10;;;6.50;99.90;;;;;;5030079;28;20030;-27
2022/11/30 05:13:41;;;;;;;46.13;25.92;;;6.50;99.90;;;;;;5030059;28;20124;-27
2022/11/30 05:16:09;;;;;;;53.35;27.65;;;6.60;99.90;;;;;;5040147;28;20042;-27
2022/11/30 05:18:35;;;;;;;51.83;26.95;;;6.60;99.90;;;;;;5032453;28;20079;-27
2022/11/30 05:21:02;;;;;;;50.50;26.20;;;6.60;99.90;;;;;;5033492;28;20041;-27
2022/11/30 05:23:28;;;;;;;48.40;27.58;;;6.60;99.90;;;;;;5030791;28;20046;-27
2022/11/30 05:25:53;;;;;;;52.95;28.00;;;6.60;99.90;;;;;;5015830;28;20482;-27
2022/11/30 05:28:19;;;;;;;49.22;26.17;;;6.60;99.90;;;;;;5033108;28;20030;-27
2022/11/30 05:30:45;;;;;;;55.33;27.95;;;6.50;99.90;;;;;;5030383;28;20088;-27
2022/11/30 05:33:11;;;;;;;48.42;26.02;;;6.50;99.90;;;;;;5032953;28;20117;-27
2022/11/30 05:35:37;;;;;;;45.97;26.08;;;6.60;99.90;;;;;;5048257;28;20036;-27
2022/11/30 05:38:03;;;;;;;50.45;27.40;;;6.60;99.90;;;;;;5034171;28;20069;-28
2022/11/30 05:40:31;;;;;;;51.35;27.45;;;6.60;99.90;;;;;;5032888;28;20048;-28
2022/11/30 05:42:59;;;;;;;47.25;26.88;;;6.50;99.90;;;;;;5033580;28;20106;-27
2022/11/30 05:45:25;;;;;;;51.92;27.75;;;6.60;99.90;;;;;;5025695;28;20041;-27
2022/11/30 05:47:51;;;;;;;47.78;26.17;;;6.60;99.90;;;;;;5033939;28;20048;-28
2022/11/30 05:50:17;;;;;;;52.00;26.40;;;6.60;99.90;;;;;;5032652;28;20044;-27
2022/11/30 05:52:43;;;;;;;51.05;26.40;;;6.60;99.90;;;;;;5033761;28;20049;-28
2022/11/30 05:55:09;;;;;;;48.05;24.98;;;6.50;99.90;;;;;;5033274;28;20117;-28
2022/11/30 05:57:38;;;;;;;50.33;26.42;;;6.50;99.90;;;;;;5050030;28;20368;-29
2022/11/30 06:00:06;;;;;;;53.13;25.40;;;6.50;99.90;;;;;;5031537;28;20365;-27
2022/11/30 06:02:32;;;;;;;47.15;25.88;;;6.50;99.90;;;;;;5032408;28;20119;-28
2022/11/30 06:04:58;;;;;;;49.97;26.58;;;6.50;99.90;;;;;;5033412;28;20033;-28
2022/11/30 06:07:24;;;;;;;54.13;27.27;;;6.50;99.90;;;;;;5031503;28;20133;-27
2022/11/30 06:09:50;;;;;;;51.55;25.85;;;6.50;99.90;;;;;;5044211;28;20039;-27
2022/11/30 06:12:16;;;;;;;47.75;25.67;;;6.50;99.90;;;;;;5026399;28;20029;-27
2022/11/30 06:14:41;;;;;;;55.15;26.83;;;6.50;99.90;;;;;;5030381;28;20037;-27
2022/11/30 06:17:07;;;;;;;54.22;27.08;;;6.40;99.90;;;;;;5033300;28;20033;-28
2022/11/30 06:19:33;;;;;;;52.28;26.52;;;6.40;99.90;;;;;;5034576;28;20045;-27
2022/11/30 06:21:59;;;;;;;54.25;27.15;;;6.40;99.90;;;;;;5033212;28;20041;-27
2022/11/30 06:24:24;;;;;;;50.45;27.15;;;6.40;99.90;;;;;;5032259;28;20099;-27
2022/11/30 06:26:50;;;;;;;56.42;27.23;;;6.40;99.90;;;;;;5041739;28;20084;-28
2022/11/30 06:29:16;;;;;;;61.70;29.38;;;6.40;99.90;;;;;;5026525;28;20171;-27
2022/11/30 06:31:42;;;;;;;63.05;28.27;;;6.40;99.90;;;;;;5023730;28;20084;-29
2022/11/30 06:34:07;;;;;;;58.92;28.30;;;6.40;99.90;;;;;;5045209;28;20040;-28
2022/11/30 06:36:33;;;;;;;63.55;29.02;;;6.40;99.90;;;;;;5030542;28;20041;-27
2022/11/30 06:38:59;;;;;;;55.72;26.80;;;6.40;99.90;;;;;;5021669;28;20041;-27
2022/11/30 06:41:25;;;;;;;54.63;28.60;;;6.40;99.90;;;;;;5007203;28;20038;-28
2022/11/30 06:43:50;;;;;;;53.95;27.50;;;6.40;99.90;;;;;;5049466;28;20040;-27
2022/11/30 06:46:16;;;;;;;57.78;28.50;;;6.40;99.90;;;;;;5032809;28;20044;-27
2022/11/30 06:48:42;;;;;;;55.88;27.67;;;6.40;99.90;;;;;;5026364;28;20041;-27
2022/11/30 06:51:09;;;;;;;56.33;26.65;;;6.40;99.90;;;;;;5025870;28;20034;-28
2022/11/30 06:53:36;;;;;;;54.40;26.80;;;6.40;99.90;;;;;;5028979;28;20116;-28
2022/11/30 06:56:06;;;;;;;50.63;25.67;;;6.40;99.90;;;;;;5050283;28;20076;-28
2022/11/30 06:58:33;;;;;;;48.80;24.95;;;6.30;99.90;;;;;;5033276;28;20037;-40
2022/11/30 07:00:59;;;;;;;51.38;26.00;;;6.30;99.90;;;;;;5033732;28;20048;-28
2022/11/30 07:03:24;;;;;;;48.50;25.55;;;6.30;99.90;;;;;;5029838;28;20486;-31
2022/11/30 07:05:50;;;;;;;46.47;24.17;;;6.30;99.90;;;;;;5027828;28;20413;-28
2022/11/30 07:08:16;;;;;;;46.28;24.65;;;6.30;99.90;;;;;;5049970;28;20051;-28
2022/11/30 07:10:44;;;;;;;46.28;24.90;;;6.30;99.90;;;;;;5033327;28;20041;-27
2022/11/30 07:13:14;;;;;;;43.60;24.52;;;6.30;99.90;;;;;;5034885;28;20037;-28
2022/11/30 07:15:41;;;;;;;41.78;23.55;;;6.30;99.90;;;;;;5033425;28;20041;-28
2022/11/30 07:18:08;;;;;;;43.40;24.17;;;6.20;99.90;;;;;;5048566;28;20076;-28
2022/11/30 07:20:34;;;;;;;43.33;23.70;;;6.20;99.90;;;;;;5034966;28;20059;-28
2022/11/30 07:28:29;;;;;;;46.97;24.15;;;6.20;99.90;;;;;;5032042;28;20048;-27
2022/11/30 07:30:55;;;;;;;48.25;23.83;;;6.20;99.90;;;;;;5031006;28;20033;-28
2022/11/30 07:33:20;;;;;;;43.92;24.55;;;6.20;99.90;;;;;;5031722;28;20453;-28
2022/11/30 07:35:46;;;;;;;41.10;23.02;;;6.20;99.90;;;;;;5019642;28;20029;-27
2022/11/30 07:38:12;;;;;;;43.67;23.10;;;6.20;99.90;;;;;;5029738;28;20167;-28
2022/11/30 07:40:38;;;;;;;42.42;21.85;;;6.20;99.90;;;;;;5036816;28;20402;-28
2022/11/30 07:43:03;;;;;;;36.15;22.15;;;6.20;99.90;;;;;;5023874;28;20570;-28
2022/11/30 07:45:29;;;;;;;31.63;20.27;;;6.20;99.90;;;;;;5032703;28;20403;-28
2022/11/30 07:47:57;;;;;;;36.88;22.60;;;6.20;99.90;;;;;;5033010;28;20029;-28
2022/11/30 07:50:23;;;;;;;32.85;20.63;;;6.20;99.90;;;;;;5049908;28;20034;-28
2022/11/30 07:52:49;;;;;;;33.25;20.73;;;6.20;99.90;;;;;;5032538;28;20052;-28
2022/11/30 07:55:15;;;;;;;32.85;21.33;;;6.20;99.90;;;;;;5049777;28;20426;-27
2022/11/30 07:57:41;;;;;;;29.90;19.70;;;6.20;99.90;;;;;;5030394;28;20457;-28
2022/11/30 08:00:08;;;;;;;31.73;20.42;;;6.20;99.90;;;;;;5045793;28;20257;-27
2022/11/30 08:02:34;;;;;;;31.20;19.25;;;6.20;99.90;;;;;;5014400;28;20425;-28
2022/11/30 08:04:59;;;;;;;32.95;20.08;;;6.20;99.90;;;;;;5033094;28;20049;-27
2022/11/30 08:07:25;;;;;;;33.03;20.48;;;6.30;99.90;;;;;;5029163;28;20398;-27
2022/11/30 08:09:51;;;;;;;28.77;19.75;;;6.20;99.90;;;;;;5029432;28;20026;-28
2022/11/30 08:12:17;;;;;;;30.52;19.27;;;6.30;99.90;;;;;;5049701;28;20034;-28
2022/11/30 08:14:42;;;;;;;29.40;19.30;;;6.30;99.90;;;;;;5033858;28;20045;-28
2022/11/30 08:17:08;;;;;;;30.05;19.55;;;6.30;99.90;;;;;;5032477;28;20128;-28
2022/11/30 08:19:34;;;;;;;34.85;20.45;;;6.30;99.90;;;;;;5050150;28;20049;-28
2022/11/30 08:22:00;;;;;;;30.15;18.98;;;6.30;99.90;;;;;;5022032;28;20091;-27
2022/11/30 08:24:26;;;;;;;29.90;20.17;;;6.30;99.90;;;;;;5047777;28;20064;-28
2022/11/30 08:26:52;;;;;;;35.03;21.23;;;6.30;99.90;;;;;;5032577;28;20120;-27
2022/11/30 08:29:18;;;;;;;32.95;20.60;;;6.30;99.90;;;;;;5032171;28;20104;-27
2022/11/30 08:31:44;;;;;;;32.75;22.20;;;6.30;99.90;;;;;;5032599;28;20061;-27
2022/11/30 08:34:11;;;;;;;34.10;21.92;;;6.30;99.90;;;;;;5032828;28;20033;-27
2022/11/30 08:36:38;;;;;;;32.58;22.25;;;6.30;99.90;;;;;;5045314;28;20041;-28
2022/11/30 08:39:06;;;;;;;35.47;21.88;;;6.30;99.90;;;;;;5033726;28;20030;-28
2022/11/30 08:41:33;;;;;;;33.45;22.15;;;6.30;99.90;;;;;;5036206;28;20045;-28
2022/11/30 08:44:02;;;;;;;38.65;24.05;;;6.40;99.90;;;;;;5033405;28;20081;-28
2022/11/30 08:46:28;;;;;;;36.75;21.30;;;6.30;99.90;;;;;;5035724;28;20127;-28
2022/11/30 08:48:54;;;;;;;34.85;21.80;;;6.40;99.90;;;;;;5033452;28;20044;-28
2022/11/30 08:51:20;;;;;;;34.95;21.90;;;6.40;99.90;;;;;;5032987;28;20033;-28
2022/11/30 08:53:47;;;;;;;34.45;22.55;;;6.40;99.90;;;;;;5036765;28;20386;-36
2022/11/30 08:56:16;;;;;;;31.80;20.55;;;6.40;99.90;;;;;;5035710;28;20041;-28
2022/11/30 08:58:42;;;;;;;34.25;22.00;;;6.40;99.90;;;;;;5028339;28;20093;-39
2022/11/30 09:01:19;;;;;;;30.73;21.63;;;6.50;99.90;;;;;;5035183;28;20073;-28
2022/11/30 09:03:48;;;;;;;31.10;21.30;;;6.50;99.90;;;;;;5050068;28;20029;-28
2022/11/30 09:06:17;;;;;;;32.80;20.77;;;6.40;99.90;;;;;;5035775;28;20025;-27
2022/11/30 09:08:46;;;;;;;34.15;22.23;;;6.50;99.90;;;;;;5035321;28;20167;-27
2022/11/30 09:11:31;;;;;;;31.73;21.13;;;6.40;99.90;;;;;;5035040;28;20386;-27
2022/11/30 09:14:00;;;;;;;34.03;21.23;;;6.40;99.90;;;;;;5042773;28;20044;-27
2022/11/30 09:16:27;;;;;;;33.47;21.55;;;6.50;99.90;;;;;;5034387;28;20049;-28
2022/11/30 09:18:54;;;;;;;30.60;22.08;;;6.50;99.90;;;;;;5035831;28;20076;-27
2022/11/30 09:21:21;;;;;;;30.35;20.83;;;6.50;99.90;;;;;;5036022;28;20045;-27
2022/11/30 09:23:48;;;;;;;30.50;20.13;;;6.50;99.90;;;;;;5037800;28;20042;-28
2022/11/30 09:26:16;;;;;;;31.38;19.88;;;6.50;99.90;;;;;;5038085;28;20034;-28
2022/11/30 09:28:44;;;;;;;30.35;21.10;;;6.50;99.90;;;;;;5035888;28;20569;-27
2022/11/30 09:31:21;;;;;;;31.30;21.95;;;6.60;99.90;;;;;;5035304;28;20045;-30
2022/11/30 09:33:47;;;;;;;30.60;22.10;;;6.60;99.90;;;;;;5049389;28;20570;-27
2022/11/30 09:36:16;;;;;;;28.35;21.38;;;6.60;99.90;;;;;;5035576;28;20380;-27
2022/11/30 09:38:42;;;;;;;26.48;20.23;;;6.60;99.90;;;;;;5036119;28;20116;-27
2022/11/30 09:41:23;;;;;;;25.60;18.33;;;6.70;99.90;;;;;;5038476;28;20148;-27
2022/11/30 09:43:49;;;;;;;23.00;17.80;;;6.70;99.90;;;;;;5032524;28;20488;-30
2022/11/30 09:46:16;;;;;;;21.65;17.13;;;6.80;99.90;;;;;;5030949;28;20060;-27
2022/11/30 09:49:01;;;;;;;23.90;17.70;;;6.80;99.90;;;;;;5036731;28;20040;-28
2022/11/30 09:51:42;;;;;;;19.77;16.98;;;6.90;99.90;;;;;;5034148;28;20029;-28
2022/11/30 09:54:15;;;;;;;19.20;14.63;;;6.90;99.90;;;;;;5034533;28;20063;-29
2022/11/30 09:56:43;;;;;;;21.30;14.77;;;6.90;99.90;;;;;;5030889;28;20041;-27
2022/11/30 09:59:18;;;;;;;16.67;13.10;;;6.90;99.90;;;;;;5011875;28;20113;-27
2022/11/30 10:01:47;;;;;;;17.08;14.10;;;7.00;99.90;;;;;;5029174;28;20075;-27
2022/11/30 10:04:24;;;;;;;14.73;13.02;;;7.00;99.90;;;;;;5029224;28;20044;-27
2022/11/30 10:07:12;;;;;;;15.30;13.57;;;7.00;99.90;;;;;;5010909;28;20076;-28
2022/11/30 10:10:00;;;;;;;15.73;13.10;;;7.00;99.90;;;;;;5029430;28;20041;-28
2022/11/30 10:12:43;;;;;;;15.60;12.65;;;7.00;99.90;;;;;;5035481;28;20116;-27
2022/11/30 10:15:21;;;;;;;16.30;13.18;;;7.00;99.90;;;;;;5031289;28;20029;-27
2022/11/30 10:18:37;;;;;;;16.42;13.85;;;7.00;99.90;;;;;;5029160;28;20088;-28
2022/11/30 10:21:06;;;;;;;15.15;12.88;;;7.00;99.90;;;;;;5005141;28;20056;-28
2022/11/30 10:23:54;;;;;;;14.98;12.43;;;7.00;99.90;;;;;;5031519;28;20081;-28
2022/11/30 10:26:30;;;;;;;15.63;13.10;;;7.00;99.90;;;;;;5028803;28;20445;-28
2022/11/30 10:29:06;;;;;;;16.27;13.05;;;7.00;99.90;;;;;;5047851;28;20041;-36
2022/11/30 10:31:38;;;;;;;15.38;13.45;;;7.00;99.90;;;;;;5023921;28;20117;-28
2022/11/30 10:34:32;;;;;;;19.38;14.75;;;7.00;99.90;;;;;;5044381;28;20049;-28
2022/11/30 10:37:07;;;;;;;17.15;13.98;;;7.00;99.90;;;;;;5024899;28;20468;-28
2022/11/30 10:39:41;;;;;;;16.38;14.18;;;7.00;99.90;;;;;;5032991;28;20049;-28
2022/11/30 10:42:23;;;;;;;16.73;14.02;;;7.00;99.90;;;;;;5030350;28;20037;-28
2022/11/30 10:45:09;;;;;;;16.30;13.40;;;6.90;99.90;;;;;;5030235;28;20048;-28
2022/11/30 10:47:50;;;;;;;20.02;14.88;;;6.90;99.90;;;;;;5035419;28;20025;-28
2022/11/30 10:50:17;;;;;;;22.38;15.55;;;6.90;99.90;;;;;;5041051;28;20419;-28
2022/11/30 10:52:51;;;;;;;17.80;14.88;;;6.90;99.90;;;;;;5027261;28;20037;-28
2022/11/30 10:55:18;;;;;;;19.50;15.45;;;6.90;99.90;;;;;;5024103;28;20121;-29
2022/11/30 10:57:46;;;;;;;19.52;15.25;;;7.00;99.90;;;;;;5032817;28;20441;-28
2022/11/30 11:00:17;;;;;;;20.52;16.30;;;7.00;99.90;;;;;;5028897;28;20048;-29
2022/11/30 11:02:46;;;;;;;20.15;16.38;;;7.00;99.90;;;;;;5030627;28;20555;-28
2022/11/30 11:05:29;;;;;;;19.33;15.90;;;7.10;99.90;;;;;;5028196;28;20591;-28
2022/11/30 11:08:21;;;;;;;22.27;16.17;;;7.10;99.90;;;;;;5044412;28;20029;-29
2022/11/30 11:10:51;;;;;;;18.65;15.15;;;7.00;99.90;;;;;;5030936;28;20465;-28
2022/11/30 11:13:34;;;;;;;18.50;14.90;;;7.10;99.90;;;;;;5031318;28;20402;-28
2022/11/30 11:16:01;;;;;;;17.93;14.80;;;7.00;99.90;;;;;;5032911;28;20029;-29
2022/11/30 11:18:29;;;;;;;18.73;15.63;;;7.00;99.90;;;;;;5031886;28;20044;-28
2022/11/30 11:21:03;;;;;;;21.63;16.58;;;7.00;99.90;;;;;;5031756;28;20392;-28
2022/11/30 11:23:37;;;;;;;22.15;16.65;;;7.00;99.90;;;;;;5030720;28;20483;-28
2022/11/30 11:26:06;;;;;;;22.45;17.13;;;7.00;99.90;;;;;;5029612;28;20056;-28
2022/11/30 11:28:34;;;;;;;24.00;18.17;;;6.90;99.90;;;;;;5031514;28;20124;-27
2022/11/30 11:31:16;;;;;;;21.73;16.55;;;6.90;99.90;;;;;;5031324;28;20034;-28
2022/11/30 11:33:53;;;;;;;23.23;17.30;;;6.90;99.90;;;;;;5031327;28;20440;-28
2022/11/30 11:36:45;;;;;;;22.33;17.60;;;7.00;99.90;;;;;;5030441;28;20037;-28
2022/11/30 11:39:31;;;;;;;25.42;18.23;;;6.90;99.90;;;;;;5027079;28;20576;-28
2022/11/30 11:41:56;;;;;;;22.00;17.40;;;6.90;99.90;;;;;;5026058;28;20037;-27
2022/11/30 11:44:26;;;;;;;24.15;18.20;;;6.90;99.90;;;;;;5031502;28;20044;-28
2022/11/30 11:46:58;;;;;;;22.70;18.10;;;6.90;99.90;;;;;;5023174;28;20487;-28
2022/11/30 11:49:35;;;;;;;23.92;17.75;;;6.90;99.90;;;;;;5014816;28;20376;-27
2022/11/30 11:52:03;;;;;;;26.02;19.15;;;6.90;99.90;;;;;;5031236;28;20041;-27
2022/11/30 11:54:53;;;;;;;29.40;21.08;;;7.00;99.90;;;;;;5026940;28;20406;-27
2022/11/30 11:57:24;;;;;;;27.83;20.58;;;6.90;99.90;;;;;;5041282;28;20060;-27
2022/11/30 11:59:57;;;;;;;28.60;21.60;;;6.90;99.90;;;;;;5031203;28;20038;-27
2022/11/30 12:02:30;;;;;;;;;;;6.90;99.90;;;;;;5028468;28;20102;-27
2022/11/30 12:05:07;;;;;;;27.42;20.83;;;6.90;99.90;;;;;;5027118;28;20385;-27
2022/11/30 12:08:01;;;;;;;31.85;21.90;;;6.90;99.90;;;;;;5032535;28;20061;-27
2022/11/30 12:10:57;;;;;;;29.80;20.67;;;6.90;99.90;;;;;;5030345;28;20514;-27
2022/11/30 12:13:32;;;;;;;30.45;21.85;;;6.90;99.90;;;;;;5026678;28;20115;-32
2022/11/30 12:16:13;;;;;;;27.77;20.45;;;6.90;99.90;;;;;;5033503;28;20061;-28
2022/11/30 12:18:50;;;;;;;33.25;22.80;;;6.90;99.90;;;;;;5031893;28;20125;-28
2022/11/30 12:21:24;;;;;;;30.98;22.20;;;6.90;99.90;;;;;;5031860;28;20124;-28
2022/11/30 12:24:07;;;;;;;29.52;21.58;;;7.00;99.90;;;;;;5028037;28;20033;-28
2022/11/30 12:26:37;;;;;;;33.70;23.17;;;7.00;99.90;;;;;;5030860;28;20049;-28
2022/11/30 12:29:18;;;;;;;31.98;22.70;;;7.00;99.90;;;;;;5032970;28;20099;-28
2022/11/30 12:32:11;;;;;;;35.42;24.00;;;7.10;99.90;;;;;;5033877;28;20490;-28
2022/11/30 12:34:50;;;;;;;35.35;24.45;;;7.00;99.90;;;;;;5033300;28;20033;-27
2022/11/30 12:37:22;;;;;;;32.78;24.17;;;7.10;99.90;;;;;;5007902;28;20080;-28
2022/11/30 12:40:00;;;;;;;36.70;25.38;;;7.00;99.90;;;;;;5034222;28;20132;-28
2022/11/30 12:42:32;;;;;;;37.22;24.58;;;7.00;99.90;;;;;;5032366;28;20076;-27
2022/11/30 12:45:11;;;;;;;40.35;25.00;;;7.00;99.90;;;;;;5034962;28;20045;-35
2022/11/30 12:48:01;;;;;;;37.20;24.70;;;7.00;99.90;;;;;;5023509;28;20491;-28
2022/11/30 12:50:50;;;;;;;39.33;24.77;;;7.00;99.90;;;;;;5031506;28;20095;-27
2022/11/30 12:53:37;;;;;;;41.85;25.25;;;7.00;99.90;;;;;;4987914;28;20041;-27
2022/11/30 12:56:24;;;;;;;40.22;24.90;;;6.90;99.90;;;;;;5027444;28;20509;-29
2022/11/30 12:59:16;;;;;;;38.40;25.00;;;6.90;99.90;;;;;;5043338;28;20052;-27
2022/11/30 13:01:48;;;;;;;38.65;25.55;;;7.00;99.90;;;;;;5032339;28;20041;-28